TimeCDT,TemperatureF,Dew PointF,Humidity,Sea Level PressureIn,VisibilityMPH,Wind Direction,Wind SpeedMPH,Gust SpeedMPH,PrecipitationIn,Events,Conditions,WindDirDegrees,DateUTC
12:53 AM,50.0,42.1,74,29.83,10.0,Calm,Calm,-,N/A,,Scattered Clouds,0,2014-03-28 05:53:00
1:53 AM,46.9,43.0,86,29.85,10.0,Calm,Calm,-,N/A,,Scattered Clouds,0,2014-03-28 06:53:00
2:53 AM,42.1,41.0,96,29.87,10.0,Calm,Calm,-,N/A,,Clear,0,2014-03-28 07:53:00
3:10 AM,42.8,41.0,93,29.88,2.0,Calm,Calm,-,N/A,,Partly Cloudy,0,2014-03-28 08:10:00
3:17 AM,42.8,41.0,93,29.88,1.5,Calm,Calm,-,N/A,,Partly Cloudy,0,2014-03-28 08:17:00
3:22 AM,41.0,41.0,100,29.88,3.0,Calm,Calm,-,N/A,,Partly Cloudy,0,2014-03-28 08:22:00
3:53 AM,39.9,39.9,100,29.86,10.0,NNW,3.5,-,N/A,,Clear,340,2014-03-28 08:53:00
4:53 AM,37.9,37.9,100,29.87,6.0,South,3.5,-,N/A,,Clear,180,2014-03-28 09:53:00
5:08 AM,39.2,39.2,100,29.88,1.8,South,5.8,-,N/A,,Partly Cloudy,180,2014-03-28 10:08:00
5:11 AM,37.4,37.4,100,29.87,0.8,South,5.8,-,N/A,,Mist,180,2014-03-28 10:11:00
5:21 AM,39.2,39.2,100,29.87,1.2,Calm,Calm,-,N/A,,Scattered Clouds,0,2014-03-28 10:21:00
5:36 AM,37.4,37.4,100,29.87,0.8,Calm,Calm,-,N/A,,Mist,0,2014-03-28 10:36:00
5:41 AM,37.4,37.4,100,29.88,1.2,WNW,3.5,-,N/A,,Partly Cloudy,300,2014-03-28 10:41:00
5:44 AM,37.4,37.4,100,29.88,3.0,WNW,4.6,-,N/A,,Clear,290,2014-03-28 10:44:00
5:53 AM,37.9,37.0,97,29.87,10.0,NNW,4.6,-,N/A,,Clear,340,2014-03-28 10:53:00
6:53 AM,39.0,37.9,96,29.88,10.0,Calm,Calm,-,N/A,,Clear,0,2014-03-28 11:53:00
7:53 AM,44.1,39.9,85,29.91,10.0,NE,5.8,-,N/A,,Clear,50,2014-03-28 12:53:00
8:53 AM,46.0,39.9,79,29.92,10.0,NE,6.9,-,N/A,,Clear,40,2014-03-28 13:53:00
9:53 AM,48.9,41.0,74,29.94,10.0,NE,9.2,-,N/A,,Clear,50,2014-03-28 14:53:00
10:53 AM,54.0,43.0,66,29.94,10.0,NNE,5.8,-,N/A,,Partly Cloudy,30,2014-03-28 15:53:00
11:10 AM,53.6,42.8,67,29.97,10.0,North,8.1,-,N/A,,Mostly Cloudy,10,2014-03-28 16:10:00
11:53 AM,55.0,43.0,64,29.95,10.0,NE,10.4,-,N/A,,Scattered Clouds,50,2014-03-28 16:53:00
12:53 PM,55.0,43.0,64,29.95,10.0,NNE,5.8,-,N/A,,Scattered Clouds,20,2014-03-28 17:53:00
1:53 PM,55.0,43.0,64,29.91,10.0,NE,10.4,-,N/A,,Mostly Cloudy,50,2014-03-28 18:53:00
2:10 PM,55.4,42.8,63,29.91,10.0,Variable,4.6,-,N/A,Thunderstorm,Thunderstorm,0,2014-03-28 19:10:00
2:19 PM,51.8,44.6,76,29.92,1.8,NE,8.1,-,0.20,Rain-Thunderstorm,Heavy Thunderstorms and Rain,40,2014-03-28 19:19:00
2:31 PM,51.8,46.4,82,29.90,5.0,NW,9.2,-,0.22,Rain-Thunderstorm,Light Thunderstorms and Rain,320,2014-03-28 19:31:00
2:53 PM,48.0,46.0,93,29.92,5.0,North,11.5,-,0.35,Rain-Thunderstorm,Heavy Thunderstorms and Rain,350,2014-03-28 19:53:00
3:48 PM,48.2,46.4,93,29.93,5.0,North,6.9,-,0.16,Rain,Rain,360,2014-03-28 20:48:00
3:53 PM,48.9,46.9,93,29.94,5.0,North,4.6,-,0.16,Rain,Light Rain,10,2014-03-28 20:53:00
4:27 PM,48.2,46.4,93,30.02,10.0,West,21.9,29.9,0.00,Thunderstorm,Overcast,270,2014-03-28 21:27:00
4:36 PM,46.4,46.4,100,29.96,3.0,North,9.2,29.9,0.10,Rain,Light Rain,10,2014-03-28 21:36:00
4:44 PM,46.4,46.4,100,29.99,7.0,NNW,9.2,16.1,0.10,Rain-Thunderstorm,Light Rain,330,2014-03-28 21:44:00
4:53 PM,46.9,46.9,100,29.99,1.8,Variable,4.6,-,0.20,Rain-Thunderstorm,Heavy Rain,0,2014-03-28 21:53:00
5:01 PM,46.4,46.4,100,29.95,2.0,NNE,8.1,-,0.03,Rain,Rain,30,2014-03-28 22:01:00
5:16 PM,46.4,46.4,100,29.96,4.0,ENE,9.2,-,0.07,Rain-Thunderstorm,Light Thunderstorms and Rain,60,2014-03-28 22:16:00
5:31 PM,48.2,48.2,100,29.96,10.0,NNE,5.8,-,0.08,Rain,Light Rain,30,2014-03-28 22:31:00
5:42 PM,48.2,48.2,100,29.95,10.0,NE,6.9,-,0.08,,Overcast,40,2014-03-28 22:42:00
5:53 PM,48.0,48.0,100,29.97,10.0,NE,9.2,17.3,0.08,Thunderstorm,Overcast,40,2014-03-28 22:53:00
6:02 PM,48.2,48.2,100,29.99,10.0,NNE,5.8,-,0.00,Rain,Light Rain,20,2014-03-28 23:02:00
6:53 PM,46.9,46.9,100,30.01,3.0,ENE,8.1,-,0.07,Rain,Rain,60,2014-03-28 23:53:00
7:53 PM,46.9,45.0,93,30.00,9.0,ENE,10.4,-,0.04,,Overcast,70,2014-03-29 00:53:00
8:53 PM,46.9,45.0,93,30.00,8.0,ENE,6.9,-,0.01,,Mostly Cloudy,60,2014-03-29 01:53:00
9:53 PM,45.0,44.1,97,30.03,6.0,Calm,Calm,-,N/A,,Partly Cloudy,0,2014-03-29 02:53:00
10:24 PM,44.6,42.8,93,30.04,5.0,NNW,8.1,-,N/A,,Mostly Cloudy,330,2014-03-29 03:24:00
10:53 PM,45.0,44.1,97,30.04,6.0,NNW,5.8,-,N/A,,Overcast,330,2014-03-29 03:53:00
11:53 PM,44.1,42.1,93,30.07,6.0,WNW,3.5,-,N/A,,Overcast,290,2014-03-29 04:53:00